createdAt,value
2022-10-19T00:00:21.242Z,97591.88
2022-10-19T00:02:51.825Z,97595.38
2022-10-19T00:05:22.611Z,97588.41
2022-10-19T00:07:54.871Z,97578.13
2022-10-19T00:10:25.668Z,97592.97
2022-10-19T00:12:56.299Z,97591.19
2022-10-19T00:15:29.503Z,97576.47
2022-10-19T00:18:00.049Z,97573.81
2022-10-19T00:20:30.626Z,97578.38
2022-10-19T00:23:01.220Z,97571.69
2022-10-19T00:25:32.242Z,97564.97
2022-10-19T00:28:03.533Z,97564.41
2022-10-19T00:30:40.028Z,97561.91
2022-10-19T00:33:10.619Z,97556.06
2022-10-19T00:35:44.129Z,97557.16
2022-10-19T00:38:14.722Z,97552.13
2022-10-19T00:40:45.331Z,97555.72
2022-10-19T00:43:18.329Z,97550.69
2022-10-19T00:45:51.932Z,97544.84
2022-10-19T00:48:26.865Z,97537.31
2022-10-19T00:51:00.361Z,97536.50
2022-10-19T00:53:33.647Z,97539.25
2022-10-19T00:56:08.538Z,97529.53
2022-10-19T00:58:39.559Z,97533.97
2022-10-19T01:01:16.234Z,97527.84
2022-10-19T01:03:47.469Z,97521.75
2022-10-19T01:06:20.997Z,97523.69
2022-10-19T01:08:51.557Z,97515.06
2022-10-19T01:11:34.530Z,97521.44
2022-10-19T01:14:21.271Z,97511.13
2022-10-19T01:17:05.749Z,97499.28
2022-10-19T01:20:03.482Z,97507.44
2022-10-19T01:22:49.043Z,97504.38
2022-10-19T01:25:26.033Z,97499.38
2022-10-19T01:28:12.797Z,97498.75
2022-10-19T01:30:56.105Z,97496.25
2022-10-19T01:33:47.283Z,97492.78
2022-10-19T01:36:26.503Z,97484.28
2022-10-19T01:39:05.444Z,97490.53
2022-10-19T01:41:46.558Z,97486.22
2022-10-19T01:44:22.102Z,97482.88
2022-10-19T01:46:58.024Z,97484.56
2022-10-19T01:49:34.318Z,97470.78
2022-10-19T01:52:08.303Z,97477.88
2022-10-19T01:54:44.659Z,97473.81
2022-10-19T01:57:20.253Z,97478.09
2022-10-19T01:59:51.640Z,97477.41
2022-10-19T02:02:27.178Z,97476.69
2022-10-19T02:05:00.395Z,97473.22
2022-10-19T02:07:31.759Z,97476.97
2022-10-19T02:10:02.457Z,97469.19
2022-10-19T02:12:36.090Z,97470.13
2022-10-19T02:15:14.788Z,97465.81
2022-10-19T02:17:52.191Z,97456.25
2022-10-19T02:20:24.216Z,97462.47
2022-10-19T02:22:54.796Z,97463.31
2022-10-19T02:25:26.242Z,97460.66
2022-10-19T02:27:56.899Z,97453.59
2022-10-19T02:30:27.721Z,97454.69
2022-10-19T02:33:00.871Z,97450.41
2022-10-19T02:35:31.625Z,97455.78
2022-10-19T02:38:05.289Z,97454.00
2022-10-19T02:40:39.756Z,97461.06
2022-10-19T02:43:19.336Z,97456.63
2022-10-19T02:45:57.954Z,97457.56
2022-10-19T02:48:35.099Z,97456.75
2022-10-19T02:51:05.777Z,97462.03
2022-10-19T02:53:36.315Z,97458.53
2022-10-19T02:56:07.227Z,97459.41
2022-10-19T02:58:37.773Z,97457.69
2022-10-19T03:01:08.570Z,97461.31
2022-10-19T03:03:41.807Z,97461.19
2022-10-19T03:06:12.597Z,97455.91
2022-10-19T03:08:43.188Z,97459.50
2022-10-19T03:11:13.737Z,97456.03
2022-10-19T03:13:45.285Z,97452.81
2022-10-19T03:16:16.990Z,97459.88
2022-10-19T03:18:51.144Z,97451.50
2022-10-19T03:21:22.066Z,97455.97
2022-10-19T03:23:52.623Z,97460.50
2022-10-19T03:26:23.364Z,97454.41
2022-10-19T03:28:53.973Z,97453.81
2022-10-19T03:31:24.723Z,97450.38
2022-10-19T03:33:57.895Z,97457.41
2022-10-19T03:36:30.225Z,97453.13
2022-10-19T03:39:02.679Z,97448.78
2022-10-19T03:41:35.708Z,97453.34
2022-10-19T03:44:06.914Z,97448.34
2022-10-19T03:46:37.961Z,97446.44
2022-10-19T03:49:12.057Z,97452.50
2022-10-19T03:51:42.567Z,97454.22
2022-10-19T03:54:16.796Z,97448.09
2022-10-19T03:56:47.566Z,97440.44
2022-10-19T03:59:18.533Z,97447.75
2022-10-19T04:01:49.673Z,97453.25
2022-10-19T04:04:23.486Z,97446.44
2022-10-19T04:06:54.312Z,97445.97
2022-10-19T04:09:26.252Z,97442.78
2022-10-19T04:11:57.149Z,97444.78
2022-10-19T04:14:33.206Z,97437.16
2022-10-19T04:17:10.473Z,97433.91
2022-10-19T04:19:43.907Z,97428.06
2022-10-19T04:22:15.024Z,97435.97
2022-10-19T04:24:45.731Z,97427.25
2022-10-19T04:27:16.449Z,97431.66
2022-10-19T04:29:47.213Z,97428.06
2022-10-19T04:32:17.854Z,97427.09
2022-10-19T04:34:51.000Z,97436.56
2022-10-19T04:37:21.507Z,97435.63
2022-10-19T04:39:52.005Z,97434.66
2022-10-19T04:42:22.526Z,97429.25
2022-10-19T04:44:53.010Z,97430.09
2022-10-19T04:47:23.514Z,97433.56
2022-10-19T04:49:56.635Z,97432.59
2022-10-19T04:52:27.263Z,97429.00
2022-10-19T04:54:57.794Z,97432.34
2022-10-19T04:57:28.263Z,97433.22
2022-10-19T04:59:58.778Z,97434.88
2022-10-19T05:02:29.269Z,97428.75
2022-10-19T05:05:02.475Z,97430.56
2022-10-19T05:07:33.758Z,97432.34
2022-10-19T05:10:04.819Z,97439.53
2022-10-19T05:12:35.613Z,97432.59
2022-10-19T05:15:06.645Z,97437.84
2022-10-19T05:17:37.281Z,97436.91
2022-10-19T05:20:12.191Z,97433.31
2022-10-19T05:22:43.058Z,97438.31
2022-10-19T05:25:13.587Z,97439.75
2022-10-19T05:27:44.092Z,97429.69
2022-10-19T05:30:15.088Z,97428.00
2022-10-19T05:32:45.602Z,97422.66
2022-10-19T05:35:22.361Z,97430.28
2022-10-19T05:37:57.386Z,97425.41
2022-10-19T05:40:27.904Z,97428.31
2022-10-19T05:42:58.419Z,97425.91
2022-10-19T05:45:28.928Z,97432.09
2022-10-19T05:47:59.486Z,97430.53
2022-10-19T05:50:32.625Z,97429.50
2022-10-19T05:53:03.130Z,97423.03
2022-10-19T05:55:38.550Z,97412.09
2022-10-19T05:58:09.068Z,97416.00
2022-10-19T06:00:39.651Z,97418.63
2022-10-19T06:03:10.154Z,97416.91
2022-10-19T06:05:43.551Z,97407.91
2022-10-19T06:08:14.149Z,97398.19
2022-10-19T06:10:44.735Z,97404.16
2022-10-19T06:13:15.886Z,97402.03
2022-10-19T06:15:46.404Z,97401.50
2022-10-19T06:18:16.989Z,97401.78
2022-10-19T06:20:50.171Z,97393.00
2022-10-19T06:23:20.967Z,97390.19
2022-10-19T06:25:51.437Z,97396.00
2022-10-19T06:28:21.971Z,97393.72
2022-10-19T06:30:52.559Z,97392.28
2022-10-19T06:33:23.086Z,97389.06
2022-10-19T06:35:56.582Z,97380.31
2022-10-19T06:38:27.155Z,97375.16
2022-10-19T06:41:01.856Z,97378.44
2022-10-19T06:43:32.384Z,97371.09
2022-10-19T06:46:06.555Z,97364.28
2022-10-19T06:48:37.223Z,97361.34
2022-10-19T06:51:12.108Z,97354.66
2022-10-19T06:53:42.632Z,97365.22
2022-10-19T06:56:13.777Z,97354.50
2022-10-19T06:58:44.388Z,97355.22
2022-10-19T07:01:15.031Z,97350.53
2022-10-19T07:03:46.034Z,97344.91
2022-10-19T07:06:19.178Z,97349.53
2022-10-19T07:08:49.733Z,97355.34
2022-10-19T07:11:22.857Z,97347.59
2022-10-19T07:13:54.922Z,97355.16
2022-10-19T07:16:25.544Z,97349.94
2022-10-19T07:18:56.926Z,97348.38
2022-10-19T07:21:30.164Z,97342.28
2022-10-19T07:24:01.059Z,97349.44
2022-10-19T07:26:33.419Z,97345.47
2022-10-19T07:29:04.615Z,97340.00
2022-10-19T07:31:36.094Z,97340.81
2022-10-19T07:34:08.512Z,97339.38
2022-10-19T07:36:45.190Z,97338.44
2022-10-19T07:39:17.159Z,97332.72
2022-10-19T07:41:48.108Z,97328.44
2022-10-19T07:44:19.280Z,97331.66
2022-10-19T07:46:50.534Z,97330.53
2022-10-19T07:49:21.053Z,97321.56
2022-10-19T07:51:56.314Z,97322.88
2022-10-19T07:54:27.686Z,97312.16
2022-10-19T07:56:58.265Z,97316.75
2022-10-19T07:59:28.880Z,97315.38
2022-10-19T08:02:02.603Z,97318.34
2022-10-19T08:07:26.465Z,97312.25
2022-10-19T08:09:57.092Z,97314.19
2022-10-19T08:12:27.890Z,97311.75
2022-10-19T08:14:58.532Z,97302.66
2022-10-19T08:17:29.104Z,97301.28
2022-10-19T08:19:59.621Z,97297.41
2022-10-19T08:22:33.094Z,97304.94
2022-10-19T08:25:03.937Z,97293.38
2022-10-19T08:27:37.571Z,97296.31
2022-10-19T08:30:08.871Z,97294.91
2022-10-19T08:32:39.436Z,97286.63
2022-10-19T08:35:11.048Z,97288.09
2022-10-19T08:37:45.435Z,97285.63
2022-10-19T08:40:23.931Z,97276.00
2022-10-19T08:42:59.379Z,97273.88
2022-10-19T08:45:51.130Z,97272.94
2022-10-19T08:48:33.180Z,97272.59
2022-10-19T08:51:04.461Z,97267.69
2022-10-19T08:53:43.054Z,97266.34
2022-10-19T08:56:50.040Z,97271.00
2022-10-19T08:59:24.718Z,97258.47
2022-10-19T09:01:58.594Z,97267.88
2022-10-19T09:04:35.865Z,97263.78
2022-10-19T09:07:23.414Z,97264.69
2022-10-19T09:10:00.192Z,97260.41
2022-10-19T09:12:46.484Z,97262.72
2022-10-19T09:15:21.373Z,97260.66
2022-10-19T09:17:51.901Z,97258.63
2022-10-19T09:20:25.696Z,97255.53
2022-10-19T09:23:06.807Z,97257.03
2022-10-19T09:25:44.149Z,97255.59
2022-10-19T09:28:36.477Z,97254.53
2022-10-19T09:31:13.999Z,97242.97
2022-10-19T09:33:47.255Z,97243.56
2022-10-19T09:36:22.916Z,97240.66
2022-10-19T09:38:58.237Z,97244.56
2022-10-19T09:41:31.909Z,97241.66
2022-10-19T09:44:03.123Z,97238.53
2022-10-19T09:46:42.405Z,97232.69
2022-10-19T09:49:13.078Z,97231.41
2022-10-19T09:51:51.911Z,97228.09
2022-10-19T09:54:38.166Z,97229.28
2022-10-19T09:57:24.396Z,97226.13
2022-10-19T09:59:55.541Z,97230.28
2022-10-19T10:02:33.229Z,97225.28
2022-10-19T10:05:09.400Z,97229.97
2022-10-19T10:07:41.877Z,97221.69
2022-10-19T10:10:14.759Z,97222.88
2022-10-19T10:12:49.077Z,97215.78
2022-10-19T10:15:24.518Z,97214.66
2022-10-19T10:17:56.156Z,97212.97
2022-10-19T10:20:32.458Z,97207.28
2022-10-19T10:23:05.449Z,97208.03
2022-10-19T10:25:38.149Z,97205.88
2022-10-19T10:28:22.762Z,97199.97
2022-10-19T10:30:58.549Z,97200.03
2022-10-19T10:33:44.042Z,97193.84
2022-10-19T10:36:16.295Z,97192.63
2022-10-19T10:38:50.510Z,97193.88
2022-10-19T10:41:25.015Z,97196.13
2022-10-19T10:44:04.585Z,97187.63
2022-10-19T10:46:38.449Z,97182.38
2022-10-19T10:49:11.499Z,97179.34
2022-10-19T10:51:50.574Z,97177.56
2022-10-19T10:54:25.575Z,97178.50
2022-10-19T10:57:09.504Z,97177.34
2022-10-19T10:59:51.300Z,97170.69
2022-10-19T11:02:32.898Z,97156.97
2022-10-19T11:05:07.766Z,97156.22
2022-10-19T11:07:39.526Z,97153.91
2022-10-19T11:10:19.803Z,97152.03
2022-10-19T11:12:57.086Z,97143.94
2022-10-19T11:15:37.780Z,97138.44
2022-10-19T11:18:18.843Z,97141.88
2022-10-19T11:20:58.344Z,97132.81
2022-10-19T11:23:40.817Z,97137.63
2022-10-19T11:26:22.960Z,97128.81
2022-10-19T11:29:05.786Z,97120.50
2022-10-19T11:31:47.865Z,97115.47
2022-10-19T11:34:37.334Z,97119.16
2022-10-19T11:37:22.452Z,97108.16
2022-10-19T11:40:04.109Z,97109.69
2022-10-19T11:42:48.352Z,97112.78
2022-10-19T11:45:35.381Z,97105.56
2022-10-19T11:48:23.925Z,97102.16
2022-10-19T11:51:16.925Z,97091.41
2022-10-19T11:53:58.825Z,97091.22
2022-10-19T11:56:58.181Z,97096.44
2022-10-19T11:59:38.629Z,97093.75
2022-10-19T12:02:31.177Z,97082.41
2022-10-19T12:05:08.930Z,97081.41
2022-10-19T12:07:56.647Z,97079.81
2022-10-19T12:10:36.157Z,97082.53
2022-10-19T12:13:09.153Z,97077.31
2022-10-19T12:15:43.110Z,97077.44
2022-10-19T12:18:19.409Z,97072.63
2022-10-19T12:20:56.656Z,97076.50
2022-10-19T12:23:33.338Z,97066.22
2022-10-19T12:26:06.741Z,97073.84
2022-10-19T12:28:39.923Z,97071.94
2022-10-19T12:31:13.684Z,97067.91
2022-10-19T12:33:52.688Z,97066.53
2022-10-19T12:36:40.099Z,97060.59
2022-10-19T12:39:17.249Z,97047.66
2022-10-19T12:41:53.441Z,97050.91
2022-10-19T12:44:38.166Z,97050.72
2022-10-19T12:47:18.766Z,97047.03
2022-10-19T12:49:51.905Z,97057.47
2022-10-19T12:52:41.629Z,97042.69
2022-10-19T12:55:34.893Z,97036.84
2022-10-19T12:58:22.820Z,97041.38
2022-10-19T13:01:02.692Z,97039.88
2022-10-19T13:03:36.775Z,97042.47
2022-10-19T13:06:14.476Z,97045.09
2022-10-19T13:08:51.768Z,97039.59
2022-10-19T13:11:23.561Z,97040.06
2022-10-19T13:14:00.599Z,97039.97
2022-10-19T13:17:09.743Z,97043.13
2022-10-19T13:19:40.381Z,97039.28
2022-10-19T13:22:30.431Z,97043.53
2022-10-19T13:25:28.152Z,97040.47
2022-10-19T13:28:03.247Z,97036.38
2022-10-19T13:31:06.085Z,97033.91
2022-10-19T13:33:49.661Z,97034.63
2022-10-19T13:36:21.321Z,97035.94
2022-10-19T13:39:08.777Z,97034.53
2022-10-19T13:41:57.322Z,97031.25
2022-10-19T13:44:31.212Z,97025.28
2022-10-19T13:47:20.658Z,97029.50
2022-10-19T13:50:06.028Z,97020.22
2022-10-19T13:52:59.581Z,97025.53
2022-10-19T13:55:53.553Z,97016.28
2022-10-19T13:58:42.405Z,97014.03
2022-10-19T14:01:25.905Z,97004.75
2022-10-19T14:04:09.832Z,97002.56
2022-10-19T14:06:46.844Z,97002.13
2022-10-19T14:09:43.668Z,96994.69
2022-10-19T14:12:22.764Z,96993.44
2022-10-19T14:14:56.396Z,97003.56
2022-10-19T14:17:30.358Z,96996.44
2022-10-19T14:20:02.254Z,96997.25
2022-10-19T14:22:36.366Z,96997.25
2022-10-19T14:25:10.351Z,97001.97
2022-10-19T14:27:41.863Z,96995.66
2022-10-19T14:30:25.628Z,96991.84
2022-10-19T14:33:01.002Z,96999.03
2022-10-19T14:35:36.586Z,96991.91
2022-10-19T14:38:09.506Z,96994.72
2022-10-19T14:40:43.236Z,96995.09
2022-10-19T14:43:23.842Z,97002.13
2022-10-19T14:46:13.567Z,97003.78
2022-10-19T14:48:45.980Z,97004.81
2022-10-19T14:51:33.963Z,97004.00
2022-10-19T14:54:08.368Z,97009.63
2022-10-19T14:56:46.190Z,97009.03
2022-10-19T14:59:27.926Z,97013.81
2022-10-19T15:02:04.188Z,97007.84
2022-10-19T15:04:37.734Z,97018.03
2022-10-19T15:07:19.911Z,97009.78
2022-10-19T15:09:56.593Z,97021.50
2022-10-19T15:12:33.370Z,97024.03
2022-10-19T15:15:04.283Z,97022.25
2022-10-19T15:17:39.103Z,97027.50
2022-10-19T15:20:26.366Z,97017.63
2022-10-19T15:22:57.372Z,97022.84
2022-10-19T15:25:37.228Z,97018.81
2022-10-19T15:28:23.510Z,97026.72
2022-10-19T15:31:04.999Z,97034.06
2022-10-19T15:33:43.386Z,97038.69
2022-10-19T15:36:17.596Z,97029.25
2022-10-19T15:38:50.073Z,97037.41
2022-10-19T15:41:23.942Z,97034.13
2022-10-19T15:43:56.942Z,97040.59
2022-10-19T15:46:31.887Z,97024.59
2022-10-19T15:49:27.632Z,97037.88
2022-10-19T15:51:58.127Z,97051.59
2022-10-19T15:54:28.757Z,97051.84
2022-10-19T15:56:59.567Z,97054.81
2022-10-19T15:59:30.203Z,97051.56
2022-10-19T16:02:00.817Z,97062.56
2022-10-19T16:04:34.249Z,97069.22
2022-10-19T16:07:05.328Z,97074.25
2022-10-19T16:09:36.187Z,97076.34
2022-10-19T16:12:06.933Z,97088.38
2022-10-19T16:14:37.784Z,97082.38
2022-10-19T16:17:08.496Z,97085.50
2022-10-19T16:19:41.846Z,97084.94
2022-10-19T16:22:12.819Z,97088.44
2022-10-19T16:24:43.965Z,97087.22
2022-10-19T16:27:16.602Z,97094.31
2022-10-19T16:29:47.608Z,97099.66
2022-10-19T16:32:18.267Z,97098.44
2022-10-19T16:34:51.589Z,97107.56
2022-10-19T16:37:22.223Z,97105.94
2022-10-19T16:39:52.793Z,97115.97
2022-10-19T16:42:25.667Z,97119.31
2022-10-19T16:44:58.853Z,97115.56
2022-10-19T16:47:29.530Z,97115.91
2022-10-19T16:50:04.586Z,97124.41
2022-10-19T16:52:35.736Z,97121.13
2022-10-19T16:55:06.612Z,97126.06
2022-10-19T16:57:37.337Z,97125.28
2022-10-19T17:00:10.381Z,97129.16
2022-10-19T17:02:44.346Z,97129.94
2022-10-19T17:05:19.766Z,97131.25
2022-10-19T17:07:50.318Z,97125.81
2022-10-19T17:10:21.915Z,97139.34
2022-10-19T17:12:52.544Z,97140.44
2022-10-19T17:15:42.019Z,97144.78
2022-10-19T17:18:13.394Z,97144.63
2022-10-19T17:20:46.540Z,97142.63
2022-10-19T17:23:17.098Z,97145.63
2022-10-19T17:25:50.905Z,97148.84
2022-10-19T17:28:24.131Z,97153.34
2022-10-19T17:30:58.030Z,97139.38
2022-10-19T17:33:30.286Z,97146.88
2022-10-19T17:36:10.400Z,97144.00
2022-10-19T17:38:41.483Z,97144.94
2022-10-19T17:41:14.600Z,97143.28
2022-10-19T17:43:47.080Z,97136.38
2022-10-19T17:46:20.069Z,97151.09
2022-10-19T17:48:50.751Z,97145.16
2022-10-19T17:51:27.295Z,97146.66
2022-10-19T17:53:59.683Z,97149.16
2022-10-19T17:56:30.909Z,97146.31
2022-10-19T17:59:03.243Z,97157.63
2022-10-19T18:01:34.639Z,97149.66
2022-10-19T18:04:05.138Z,97159.13
2022-10-19T18:06:39.932Z,97157.13
2022-10-19T18:09:13.812Z,97157.47
2022-10-19T18:11:47.398Z,97159.94
2022-10-19T18:14:18.224Z,97166.25
2022-10-19T18:16:50.531Z,97160.13
2022-10-19T18:19:21.344Z,97160.44
2022-10-19T18:21:54.551Z,97163.91
2022-10-19T18:24:25.457Z,97158.41
2022-10-19T18:26:56.298Z,97162.28
2022-10-19T18:29:28.750Z,97160.28
2022-10-19T18:31:59.326Z,97167.34
2022-10-19T18:34:30.252Z,97179.44
2022-10-19T18:37:03.406Z,97176.63
2022-10-19T18:39:33.973Z,97181.66
2022-10-19T18:42:04.912Z,97173.03
2022-10-19T18:44:35.494Z,97175.69
2022-10-19T18:47:06.308Z,97174.34
2022-10-19T18:49:37.269Z,97178.66
2022-10-19T18:52:10.453Z,97173.34
2022-10-19T18:54:41.195Z,97176.97
2022-10-19T18:57:11.844Z,97186.88
2022-10-19T18:59:42.482Z,97180.88
2022-10-19T19:02:22.366Z,97188.94
2022-10-19T19:04:58.986Z,97190.44
2022-10-19T19:07:32.232Z,97197.84
2022-10-19T19:10:03.007Z,97193.69
2022-10-19T19:12:34.425Z,97201.31
2022-10-19T19:15:08.319Z,97205.25
2022-10-19T19:17:39.234Z,97210.06
2022-10-19T19:20:11.061Z,97208.19
2022-10-19T19:22:44.269Z,97214.78
2022-10-19T19:25:15.077Z,97215.41
2022-10-19T19:27:45.812Z,97229.59
2022-10-19T19:30:16.701Z,97227.41
2022-10-19T19:32:47.400Z,97231.22
2022-10-19T19:35:18.694Z,97239.25
2022-10-19T19:37:51.969Z,97239.69
2022-10-19T19:40:22.530Z,97244.94
2022-10-19T19:42:53.100Z,97245.84
2022-10-19T19:45:23.652Z,97243.44
2022-10-19T19:47:57.189Z,97258.75
2022-10-19T19:50:27.782Z,97251.31
2022-10-19T19:53:02.152Z,97251.19
2022-10-19T19:55:38.859Z,97246.91
2022-10-19T19:58:09.917Z,97253.03
2022-10-19T20:00:42.555Z,97248.72
2022-10-19T20:03:13.884Z,97253.19
2022-10-19T20:05:44.453Z,97252.09
2022-10-19T20:08:17.627Z,97257.44
2022-10-19T20:10:48.156Z,97262.59
2022-10-19T20:13:18.722Z,97269.00
2022-10-19T20:15:49.270Z,97265.22
2022-10-19T20:18:19.831Z,97257.78
2022-10-19T20:20:50.326Z,97262.59
2022-10-19T20:23:23.417Z,97256.09
2022-10-19T20:25:53.941Z,97260.00
2022-10-19T20:28:24.490Z,97253.84
2022-10-19T20:31:02.980Z,97267.50
2022-10-19T20:33:34.741Z,97267.03
2022-10-19T20:36:07.105Z,97261.66
2022-10-19T20:38:42.072Z,97273.75
2022-10-19T20:41:13.169Z,97275.78
2022-10-19T20:43:43.655Z,97278.94
2022-10-19T20:46:16.176Z,97277.66
2022-10-19T20:48:47.237Z,97278.81
2022-10-19T20:51:20.056Z,97271.16
2022-10-19T20:53:54.344Z,97279.31
2022-10-19T20:56:27.725Z,97271.75
2022-10-19T20:58:59.310Z,97281.06
2022-10-19T21:01:32.060Z,97277.50
2022-10-19T21:04:05.223Z,97274.19
2022-10-19T21:06:38.269Z,97280.16
2022-10-19T21:09:15.872Z,97290.50
2022-10-19T21:11:50.407Z,97282.47
2022-10-19T21:14:27.140Z,97288.47
2022-10-19T21:17:01.455Z,97282.81
2022-10-19T21:19:35.445Z,97289.84
2022-10-19T21:22:06.536Z,97280.03
2022-10-19T21:24:40.098Z,97284.31
2022-10-19T21:27:12.459Z,97287.88
2022-10-19T21:29:43.171Z,97294.28
2022-10-19T21:32:13.709Z,97288.94
2022-10-19T21:34:44.327Z,97290.91
2022-10-19T21:37:15.078Z,97293.78
2022-10-19T21:39:48.228Z,97289.84
2022-10-19T21:42:18.748Z,97284.22
2022-10-19T21:44:51.387Z,97283.41
2022-10-19T21:47:24.520Z,97276.38
2022-10-19T21:49:55.188Z,97287.53
2022-10-19T21:52:25.801Z,97284.22
2022-10-19T21:54:59.588Z,97282.19
2022-10-19T21:57:30.296Z,97281.75
2022-10-19T22:00:00.846Z,97281.91
2022-10-19T22:02:31.437Z,97288.09
2022-10-19T22:05:02.000Z,97281.63
2022-10-19T22:07:33.356Z,97290.09
2022-10-19T22:10:07.339Z,97278.78
2022-10-19T22:12:38.397Z,97277.09
2022-10-19T22:15:10.232Z,97294.69
2022-10-19T22:17:40.808Z,97286.00
2022-10-19T22:20:12.550Z,97282.34
2022-10-19T22:22:43.055Z,97282.63
2022-10-19T22:25:16.251Z,97282.34
2022-10-19T22:27:46.731Z,97284.94
2022-10-19T22:30:17.356Z,97280.44
2022-10-19T22:32:47.920Z,97280.53
2022-10-19T22:35:18.653Z,97286.88
2022-10-19T22:37:49.179Z,97288.47
2022-10-19T22:40:22.371Z,97282.84
2022-10-19T22:42:52.865Z,97287.09
2022-10-19T22:45:23.375Z,97279.59
2022-10-19T22:47:53.878Z,97280.22
2022-10-19T22:50:24.430Z,97280.63
2022-10-19T22:52:54.925Z,97271.47
2022-10-19T22:55:28.207Z,97255.34
2022-10-19T22:57:58.752Z,97264.97
2022-10-19T23:00:29.571Z,97271.94
2022-10-19T23:03:00.141Z,97273.72
2022-10-19T23:05:30.696Z,97272.00
2022-10-19T23:08:01.261Z,97259.75
2022-10-19T23:10:34.407Z,97267.56
2022-10-19T23:13:04.879Z,97265.66
2022-10-19T23:15:35.407Z,97266.31
2022-10-19T23:18:05.970Z,97269.44
2022-10-19T23:20:36.513Z,97266.75
2022-10-19T23:23:07.096Z,97258.56
2022-10-19T23:25:40.198Z,97255.75
2022-10-19T23:28:10.695Z,97249.16
2022-10-19T23:30:41.205Z,97246.38
2022-10-19T23:33:11.750Z,97239.44
2022-10-19T23:35:42.212Z,97234.66
2022-10-19T23:38:12.669Z,97250.47
2022-10-19T23:40:46.079Z,97240.84
2022-10-19T23:43:16.590Z,97242.34
2022-10-19T23:45:48.685Z,97253.66
2022-10-19T23:48:19.171Z,97249.59
2022-10-19T23:50:49.659Z,97254.72
2022-10-19T23:53:20.154Z,97251.19
2022-10-19T23:55:53.341Z,97258.09
2022-10-19T23:58:23.834Z,97252.75
